• Join FlightAware (Why Join?)
  • Login
  • US Flag 
08:59PM EDT


 

Airport Tracker/Info


-or-


 

Live Flight TrackerFlight Track Log ✈ JBU1329 ✈ 08-May-2013 ✈ KBOS - KBWI

Flight Track Log - Related Links

Times and Time Zones

All times are in EDT time to prevent confusion due to time zone crossing. See the JBU1329 flight status page for this flight to view local times or setup timezone preferences in your user account.

Time Position Orientation Groundspeed Altitude Reporting Facility
EDT Latitude Longitude Course Direction KTS MPH feet Rate Location/Type
09:23AM 42.3667 -70.9667 240° Southwest 163 188 800  Level KA90
09:24AM 42.3667 -70.9333 90° East 171 197 1,900 2,160 Climbing KA90
09:25AM 42.3833 -70.8500 75° East 231 266 4,300 2,640 Climbing KA90
09:26AM 42.3924 -70.7424 144° Southeast  Level FlightAware Approximate
09:26AM 42.3883 -70.7928 83° East 261 300 6,400  Level Boston Center
09:27AM 42.3020 -70.7171 172° South  Level FlightAware Approximate
09:27AM 42.3458 -70.7267 131° Southeast 268 308 9,800  Level Boston Center
09:28AM 42.2388 -70.8084 228° Southwest  Level FlightAware Approximate
09:28AM 42.2647 -70.7400 187° South 238 274 11,600  Level Boston Center
09:29AM 42.1907 -70.9162 240° Southwest  Level FlightAware Approximate
09:29AM 42.2267 -70.8558 246° West 229 264 14,400  Level Boston Center
09:30AM 42.2036 -71.0022 258° West 297 342 17,200 2,160 Climbing Boston Center
09:31AM 42.1883 -71.1119 259° West 353 406 18,800 1,920 Climbing Boston Center
09:32AM 42.1672 -71.2806 260° West 392 451 21,100 2,220 Climbing Boston Center
09:33AM 42.1436 -71.4292 258° West 402 463 23,300 1,980 Climbing Boston Center
09:34AM 42.1158 -71.5919 257° West 408 470 25,100 1,740 Climbing Boston Center
09:35AM 42.0897 -71.7492 257° West 420 483 26,800 1,620 Climbing Boston Center
09:36AM 42.0656 -71.9058 258° West 430 495 28,400 1,620 Climbing Boston Center
09:37AM 42.0414 -72.0656 259° West 430 495 30,100 1,740 Climbing Boston Center
09:38AM 42.0167 -72.2222 258° West 430 495 31,900 900 Climbing Boston Center
09:39AM 41.9961 -72.3450 257° West 430 495 32,000  Climbing Boston Center
09:40AM 41.9647 -72.5350 258° West 430 495 32,000  Level Boston Center
09:41AM 41.9333 -72.6883 255° West 430 495 32,000  Level Boston Center
09:42AM 41.8581 -72.8053 229° Southwest 419 482 32,000  Level Boston Center
09:43AM 41.7761 -72.9161 225° Southwest 419 482 32,000  Level Boston Center
09:44AM 41.6922 -73.0294 225° Southwest 419 482 32,000  Level Boston Center
09:45AM 41.6083 -73.1453 226° Southwest 430 495 32,000  Level Boston Center
09:46AM 41.5306 -73.2497 225° Southwest 435 501 32,000  Level Boston Center
09:47AM 41.4358 -73.3706 224° Southwest 435 501 32,000  Level Boston Center
09:48AM 41.2800 -73.5872 226° Southwest 445 512 32,000  Level New York Center
09:49AM 41.2019 -73.7136 231° Southwest 452 520 32,000  Level New York Center
09:50AM 41.1258 -73.8425 232° Southwest 452 520 32,000  Level New York Center
09:51AM 41.0494 -73.9736 232° Southwest 452 520 32,000  Level New York Center
09:52AM 40.9775 -74.0911 231° Southwest 458 527 32,000 -660 Level New York Center
09:53AM 40.8922 -74.2297 231° Southwest 458 527 30,700 -1,800 Descending New York Center
09:54AM 40.8133 -74.3575 231° Southwest 458 527 28,400 -1,380 Descending New York Center
09:55AM 40.7475 -74.4717 233° Southwest 436 502 28,000 -240 Descending New York Center
09:56AM 40.6836 -74.5750 231° Southwest 398 458 28,000  Level New York Center
09:57AM 40.6197 -74.6808 232° Southwest 381 438 28,000 -60 Level New York Center
09:58AM 40.5536 -74.7861 230° Southwest 381 438 27,900 -600 Descending New York Center
09:59AM 40.4881 -74.8806 228° Southwest 369 425 26,900 -1,020 Descending New York Center
10:00AM 40.4178 -74.9772 226° Southwest 369 425 25,900 -1,140 Descending New York Center
10:01AM 40.3475 -75.0764 227° Southwest 374 430 24,700 -1,380 Descending New York Center
10:02AM 40.2794 -75.1731 227° Southwest 374 430 23,300 -1,380 Descending New York Center
10:03AM 40.2114 -75.2664 226° Southwest 374 430 22,000 -1,320 Descending New York Center
10:04AM 40.1453 -75.3600 227° Southwest 367 422 20,700 -1,020 Descending New York Center
10:05AM 40.0811 -75.4481 226° Southwest 356 410 20,000 -360 Descending New York Center
10:06AM 40.0258 -75.5311 229° Southwest 351 404 20,000  Level New York Center
10:07AM 39.9619 -75.6161 226° Southwest 345 397 20,000 -480 Level New York Center
10:08AM 39.9039 -75.7094 231° Southwest 339 390 19,100 -1,440 Descending New York Center
10:09AM 39.8408 -75.8158 232° Southwest 339 390 17,200 -1,740 Descending New York Center
10:12AM 39.7167 -76.0500 235° Southwest 310 357 12,900 -1,680 Descending Potomac TRACON
10:13AM 39.6833 -76.1500 247° West 303 349 11,300 -1,560 Descending Potomac TRACON
10:14AM 39.6500 -76.2500 247° West 294 338 10,000 -960 Descending Potomac TRACON
10:15AM 39.6333 -76.3500 258° West 294 338 9,400 -900 Descending Potomac TRACON
10:16AM 39.6000 -76.4333 243° Southwest 283 326 8,300 -1,140 Descending Potomac TRACON
10:17AM 39.5167 -76.4500 189° South 271 312 7,200 -1,020 Descending Potomac TRACON
10:18AM 39.4500 -76.4667 191° South 268 308 6,300 -1,020 Descending Potomac TRACON
10:19AM 39.4000 -76.5333 226° Southwest 275 316 5,300 -720 Descending Potomac TRACON
10:20AM 39.4000 -76.6167 270° West 272 313 5,000 -180 Descending Potomac TRACON
10:21AM 39.3833 -76.7167 258° West 270 311 5,000 -420 Level Potomac TRACON
10:22AM 39.3667 -76.8000 256° West 270 311 4,200 -540 Descending Potomac TRACON
10:23AM 39.3333 -76.8833 243° Southwest 235 270 4,000 -120 Descending Potomac TRACON
10:24AM 39.2833 -76.8833 180° South 204 235 4,000  Level Potomac TRACON
10:25AM 39.2333 -76.8833 180° South 167 192 4,000 -420 Level Potomac TRACON
10:26AM 39.1833 -76.8833 180° South 164 189 3,300 -1,080 Descending Potomac TRACON
10:27AM 39.1833 -76.8333 90° East 178 205 2,000 -900 Descending Potomac TRACON
10:28AM 39.1833 -76.7833 90° East 154 177 1,500 -600 Descending Potomac TRACON
10:29AM 39.1833 -76.7333 90° East 136 157 800 -720 Descending Potomac TRACON